Latest Coastal Weather Observations for Bunbury

IDW60701

Issued at 3:05 am WST Saturday 25 October 2014 (issued every 10 minutes, with the page automatically refreshed every 10 minutes)

About coastal observations | Map of coastal stations | Coastal observations for WA | Marine services | Other Formats
Station Details ID: 009965 Name: BUNBURY Lat: -33.36 Lon: 115.64 Height: 5.2 m
Data from the previous 72 hours. | See also: Recent months at Bunbury
Date/Time
WST
Temp

°C
Wind Pressure Rain
since 9am
mm
Weather Cloud Vis
km
Sea
Height
m
Swell
Dir
 
Speed
knots
Gust
knots
hPa Trend Height
m
Period
s
Dir
25/03:00am 12.4 ENE 0 2 1014.5 - 0.0 - - - - - - -
25/02:30am 12.2 E 2 3 1014.5 - 0.0 - - - - - - -
25/02:00am 12.4 E 1 2 1014.6 - 0.0 - - - - - - -
25/01:30am 12.5 ENE 1 2 1014.5 - 0.0 - - - - - - -
25/01:00am 12.3 CALM 0 0 1014.6 - 0.0 - - - - - - -
25/12:30am 13.2 CALM 0 0 1014.8 - 0.0 - - - - - - -
25/12:00am 13.4 NE 0 1 1014.9 - 0.0 - - - - - - -
 
Date/Time
WST
Temp

°C
Wind Pressure Rain
since 9am
mm
Weather Cloud Vis
km
Sea
Height
m
Swell
Dir
 
Speed
knots
Gust
knots
hPa Trend Height
m
Period
s
Dir
24/11:30pm 13.8 CALM 0 1 1015.2 - 0.0 - - - - - - -
24/11:00pm 14.3 CALM 0 2 1015.3 - 0.0 - - - - - - -
24/10:30pm 14.1 CALM 0 0 1015.6 - 0.0 - - - - - - -
24/10:00pm 14.3 CALM 0 3 1015.9 - 0.0 - - - - - - -
24/09:30pm 14.0 ESE 1 3 1015.9 - 0.0 - - - - - - -
24/09:00pm 14.6 CALM 0 0 1016.0 - 0.0 - - - - - - -
24/08:30pm 14.9 CALM 0 0 1015.8 - 0.0 - - - - - - -
24/08:00pm 16.5 SSW 2 3 1015.7 - 0.0 - - - - - - -
24/07:30pm 16.6 SSW 4 5 1015.5 - 0.0 - - - - - - -
24/07:00pm 16.9 SW 4 5 1015.5 - 0.0 - - - - - - -
24/06:30pm 17.4 SSW 5 6 1015.5 - 0.0 - - - - - - -
24/06:00pm 18.0 WSW 5 6 1015.5 - 0.0 - - - - - - -
24/05:30pm 18.5 SW 5 7 1015.5 - 0.0 - - - - - - -
24/05:00pm 19.4 WSW 5 8 1015.6 - 0.0 - - - - - - -
24/04:30pm 20.5 WSW 6 8 1015.6 - 0.0 - - - - - - -
24/04:00pm 20.5 WSW 7 10 1015.6 - 0.0 - - - - - - -
24/03:30pm 20.5 WSW 7 9 1015.5 - 0.0 - - - - - - -
24/03:00pm 20.7 W 7 10 1015.7 - 0.0 - - - - - - -
24/02:30pm 20.9 W 7 9 1015.7 - 0.0 - - - - - - -
24/02:00pm 21.2 WNW 6 9 1015.9 - 0.0 - - - - - - -
24/01:30pm 21.1 W 7 9 1016.3 - 0.0 - - - - - - -
24/01:00pm 20.9 WNW 7 9 1016.7 - 0.0 - - - - - - -
24/12:30pm 20.7 NW 7 9 1016.8 - 0.0 - - - - - - -
24/12:00pm 20.5 NW 6 9 1017.0 - 0.0 - - - - - - -
24/11:30am 20.6 NW 6 9 1017.3 - 0.0 - - - - - - -
24/11:00am 20.6 N 5 9 1017.6 - 0.0 - - - - - - -
24/10:30am 19.9 NNE 6 10 1018.1 - 0.0 - - - - - - -
24/10:00am 19.7 NE 6 12 1018.1 - 0.0 - - - - - - -
24/09:30am 18.6 NE 5 8 1018.2 - 0.0 - - - - - - -
24/09:00am 17.4 E 5 7 1018.6 - 0.2 - - - - - - -
24/08:30am 16.0 E 6 9 1018.7 - 0.2 - - - - - - -
24/08:00am 15.3 E 7 13 1018.6 - 0.2 - - - - - - -
24/07:30am 14.6 ENE 7 11 1018.3 - 0.2 - - - - - - -
24/07:00am 13.2 E 3 5 1018.3 - 0.2 - - - - - - -
24/06:30am 12.0 E 1 3 1018.2 - 0.2 - - - - - - -
24/06:00am 11.2 CALM 0 1 1018.3 - 0.2 - - - - - - -
24/05:30am 11.0 ENE 2 3 1017.9 - 0.2 - - - - - - -
24/05:00am 10.5 SE 1 3 1017.7 - 0.2 - - - - - - -
24/04:30am 10.5 ESE 3 4 1017.5 - 0.2 - - - - - - -
24/04:00am 10.5 CALM 0 0 1017.7 - 0.2 - - - - - - -
24/03:30am 11.0 SE 3 4 1017.9 - 0.2 - - - - - - -
24/03:00am 11.4 SSE 2 5 1018.1 - 0.2 - - - - - - -
24/02:30am 11.7 S 3 4 1018.1 - 0.2 - - - - - - -
24/02:00am 12.0 S 4 5 1018.2 - 0.2 - - - - - - -
24/01:30am 11.9 S 3 4 1018.3 - 0.2 - - - - - - -
24/01:00am 11.9 S 3 4 1018.3 - 0.2 - - - - - - -
24/12:30am 11.7 S 3 5 1018.4 - 0.2 - - - - - - -
24/12:00am 11.9 S 3 3 1018.4 - 0.2 - - - - - - -
 
Date/Time
WST
Temp

°C
Wind Pressure Rain
since 9am
mm
Weather Cloud Vis
km
Sea
Height
m
Swell
Dir
 
Speed
knots
Gust
knots
hPa Trend Height
m
Period
s
Dir
23/11:30pm 12.0 CALM 0 0 1018.3 - 0.2 - - - - - - -
23/11:00pm 13.0 CALM 0 0 1018.4 - 0.2 - - - - - - -
23/10:30pm 13.7 S 2 3 1018.4 - 0.2 - - - - - - -
23/10:00pm 14.1 S 4 5 1018.5 - 0.2 - - - - - - -
23/09:30pm 14.3 S 4 6 1018.5 - 0.2 - - - - - - -
23/09:00pm 15.0 S 5 6 1018.6 - 0.2 - - - - - - -
23/08:30pm 15.4 S 4 6 1018.5 - 0.2 - - - - - - -
23/08:00pm 15.8 S 4 5 1018.1 - 0.2 - - - - - - -
23/07:30pm 16.4 S 3 4 1017.7 - 0.2 - - - - - - -
23/07:00pm 17.1 S 3 5 1017.3 - 0.2 - - - - - - -
23/06:30pm 18.1 SSW 4 5 1016.9 - 0.2 - - - - - - -
23/06:00pm 19.6 S 6 8 1016.5 - 0.2 - - - - - - -
23/05:30pm 20.2 S 6 9 1016.2 - 0.2 - - - - - - -
23/05:00pm 20.3 S 9 13 1016.1 - 0.2 - - - - - - -
23/04:30pm 21.8 SSW 12 16 1015.8 - 0.2 - - - - - - -
23/04:00pm 19.9 WSW 10 17 1015.7 - 0.2 - - - - - - -
23/03:30pm 21.1 WSW 10 16 1015.6 - 0.2 - - - - - - -
23/03:00pm 20.7 WSW 13 19 1015.4 - 0.2 - - - - - - -
23/02:30pm 21.5 W 10 17 1015.4 - 0.2 - - - - - - -
23/02:00pm 21.4 W 11 19 1015.3 - 0.2 - - - - - - -
23/01:30pm 21.7 WSW 10 15 1015.4 - 0.2 - - - - - - -
23/01:00pm 20.9 WSW 12 17 1015.3 - 0.2 - - - - - - -
23/12:30pm 21.2 WSW 11 17 1015.1 - 0.2 - - - - - - -
23/12:00pm 20.9 WSW 11 17 1015.1 - 0.2 - - - - - - -
23/11:30am 20.4 WSW 11 15 1015.1 - 0.2 - - - - - - -
23/11:00am 20.5 WSW 9 13 1015.2 - 0.2 - - - - - - -
23/10:30am 19.1 WSW 9 12 1015.1 - 0.2 - - - - - - -
23/10:00am 19.8 WSW 8 14 1015.0 - 0.0 - - - - - - -
23/09:30am 18.1 SSW 9 15 1014.9 - 0.0 - - - - - - -
23/09:00am 16.9 WSW 11 20 1014.6 - - - - - - - - -
23/08:30am 19.3 W 11 18 1014.1 - - - - - - - - -
23/08:00am 18.6 W 12 16 1013.8 - - - - - - - - -
23/07:30am 18.0 WSW 9 12 1013.6 - - - - - - - - -
23/07:00am 18.0 W 11 17 1013.2 - - - - - - - - -
23/06:30am 17.7 W 10 16 1013.0 - - - - - - - - -
23/06:00am 17.6 W 8 13 1012.7 - - - - - - - - -
23/05:30am 17.2 W 9 13 1012.4 - - - - - - - - -
23/05:00am 17.4 W 10 15 1012.2 - - - - - - - - -
23/04:30am 17.1 WNW 9 13 1012.1 - - - - - - - - -
23/04:00am 16.9 WNW 7 11 1011.9 - - - - - - - - -
23/03:30am 16.8 WNW 8 12 1011.8 - - - - - - - - -
23/03:00am 16.8 WNW 8 13 1012.0 - 0.0 - - - - - - -
23/02:30am 17.1 W 9 13 1011.9 - - - - - - - - -
23/02:00am 17.2 W 8 12 1012.2 - - - - - - - - -
23/01:30am 16.2 W 4 7 1012.4 - - - - - - - - -
23/01:00am 16.8 W 3 5 1012.2 - - - - - - - - -
23/12:30am 17.6 W 6 8 1012.9 - - - - - - - - -
23/12:00am 17.8 W 8 12 1013.4 - - - - - - - - -
 
Date/Time
WST
Temp

°C
Wind Pressure Rain
since 9am
mm
Weather Cloud Vis
km
Sea
Height
m
Swell
Dir
 
Speed
knots
Gust
knots
hPa Trend Height
m
Period
s
Dir
22/11:30pm 17.5 W 8 11 1013.4 - - - - - - - - -
22/11:00pm 17.9 W 8 12 1013.5 - - - - - - - - -
22/10:30pm 17.9 W 6 11 1013.8 - - - - - - - - -
22/10:00pm 18.0 W 9 14 1013.7 - - - - - - - - -
22/09:30pm 17.9 W 9 13 1013.6 - - - - - - - - -
22/09:00pm 18.3 W 8 13 1013.4 - - - - - - - - -
22/08:30pm 18.4 W 7 13 1013.2 - - - - - - - - -
22/08:00pm 18.8 W 10 15 1012.9 - - - - - - - - -
22/07:30pm 19.1 W 7 11 1012.6 - - - - - - - - -
22/07:00pm 19.1 W 8 13 1012.3 - - - - - - - - -
22/06:30pm 19.5 WNW 6 12 1012.1 - - - - - - - - -
22/06:00pm 19.9 WNW 6 10 1011.7 - - - - - - - - -
22/05:30pm 20.5 W 10 14 1011.3 - - - - - - - - -
22/05:00pm 21.0 NW 8 11 1011.0 - - - - - - - - -
22/04:30pm 21.6 - - - 1010.4 - - - - - - - - -
22/02:30pm 26.6 WNW 9 12 1020.0 - 0.0 - - - - - - -
22/02:00pm 26.6 WNW 9 13 1015.4 - 0.0 - - - - - - -
22/01:30pm 28.6 NNW 10 14 1016.4 - 0.0 - - - - - - -
22/01:00pm 29.3 NNE 11 20 1016.8 - 0.0 - - - - - - -
22/12:30pm 29.2 NNE 11 22 1017.1 - 0.0 - - - - - - -
22/12:00pm 28.0 NE 12 20 1011.6 - 0.0 - - - - - - -
22/11:30am 27.2 ENE 12 18 1018.1 - 0.0 - - - - - - -
22/11:00am 26.6 ENE 11 18 1018.7 - 0.0 - - - - - - -
22/10:30am 25.8 ENE 10 17 1019.4 - 0.0 - - - - - - -
22/10:00am 24.6 ENE 11 16 1020.3 - 0.0 - - - - - - -
22/09:30am 23.9 NE 10 17 1020.7 - 0.0 - - - - - - -
22/09:00am 23.0 E 8 13 1021.0 - 0.0 - - - - - - -
22/08:30am 21.2 ENE 11 16 1021.1 - 0.0 - - - - - - -
22/08:00am 20.0 E 10 17 1021.2 - 0.0 - - - - - - -
22/07:30am 17.9 E 14 20 1021.6 - 0.0 - - - - - - -
22/07:00am 17.5 E 12 18 1021.5 - 0.0 - - - - - - -
22/06:30am 15.6 E 11 18 1018.4 - 0.0 - - - - - - -
22/06:00am 15.3 E 12 18 1022.1 - 0.0 - - - - - - -
22/05:30am 15.5 E 13 18 1021.9 - 0.0 - - - - - - -
22/05:00am 15.3 ENE 11 17 1021.5 - 0.0 - - - - - - -
22/04:30am 15.4 E 10 17 1021.6 - 0.0 - - - - - - -
22/04:00am 14.6 ESE 6 10 1021.5 - 0.0 - - - - - - -
22/03:30am 14.6 E 9 14 1021.7 - 0.0 - - - - - - -

Other Formats:

Comma delimited format used in spreadsheet applications
http://www.bom.gov.au/fwo/IDW60701/IDW60701.94604.axf

JavaScript Object Notation format (JSON) in row-major order
http://www.bom.gov.au/fwo/IDW60701/IDW60701.94604.json